Nashville, Tennessee
Traffic Map
Current Weather Conditions
Nashville, Tennessee
Broken Clouds
Broken Clouds
79°
Feels Like: 81°
Wind Chill: 79° Ceiling: 10000
Heat Index: 81° Visibility: 10mi
Dew Point: 68° Wind: 5mph
Humidity: 69% Direction: 150° (SSE)
Pressure: 29.94in Gusts: 0mph
Raw Report DataKBNA 200453Z 15004KT 10SM BKN100 26/20 A2994 RMK AO2 SLP131 T02610200
Traffic Incident Summary
Active as of:
Severity:
Category:
InformationThere was an issue retrieving the traffic information for this location. Please try a different location or try again shortly.
Advertisements